This is the latest recevied weather packets stored in our database for station/object KD8ZLZ-13. If no packets are shown the sender has not sent any weather packets the latest 10 day(s).
| Time | Temp. | Humidity | Pressure | Rain* | Wind** | Luminosity | Snow |
|---|---|---|---|---|---|---|---|
| 1777312469 | 19.44° C | 55% | 1018.3 hPa | 0 mm | - | 788 W/m² | - |
| 1777311269 | 19.44° C | 55% | 1018.3 hPa | 0 mm | - | 715 W/m² | - |
| 1777310669 | 19.44° C | 55% | 1018.3 hPa | 0 mm | - | 695 W/m² | - |
| 1777310069 | 18.89° C | 56% | 1018 hPa | 0 mm | - | 556 W/m² | - |
| 1777210521 | 11.67° C | 66% | 1022 hPa | 0 mm | - | 295 W/m² | - |
| 1777208724 | 10° C | 73% | 1022 hPa | 0 mm | - | 50 W/m² | - |
| 1777202721 | 4.44° C | 96% | 1021 hPa | 0 mm | - | 20 W/m² | - |
| 1777201520 | 4.44° C | 96% | 1021 hPa | 0 mm | - | 10 W/m² | - |
| 1777199120 | 5° C | 95% | 1020.7 hPa | 0 mm | - | 0 W/m² | - |
| 1777196120 | 5.56° C | 94% | 1019.7 hPa | 0 mm | - | 0 W/m² | - |
| 1777195520 | 5.56° C | 93% | 1019.7 hPa | 0 mm | - | 0 W/m² | - |
| 1777194920 | 6.11° C | 93% | 1019.3 hPa | 0 mm | - | 0 W/m² | - |
| 1777194320 | 6.11° C | 91% | 1019.3 hPa | 0 mm | - | 0 W/m² | - |
| 1777193720 | 6.67° C | 89% | 1019.3 hPa | 0 mm | - | 0 W/m² | - |
| 1777192520 | 7.22° C | 86% | 1019.3 hPa | 0 mm | - | 0 W/m² | - |
| 1777191920 | 7.78° C | 85% | 1019.3 hPa | 0 mm | - | 0 W/m² | - |
| 1777191320 | 8.33° C | 83% | 1019.3 hPa | 0 mm | - | 0 W/m² | - |
| 1777190720 | 8.33° C | 83% | 1019 hPa | 0 mm | - | 0 W/m² | - |
| 1777190120 | 8.33° C | 83% | 1019.3 hPa | 0 mm | - | 0 W/m² | - |
| 1777188920 | 8.33° C | 83% | 1019.3 hPa | 0 mm | - | 0 W/m² | - |
| 1777188320 | 8.33° C | 83% | 1019.3 hPa | 0 mm | - | 0 W/m² | - |
| 1777187720 | 8.33° C | 83% | 1019.3 hPa | 0 mm | - | 0 W/m² | - |
| 1777187120 | 8.89° C | 82% | 1019.3 hPa | 0 mm | - | 0 W/m² | - |
| 1777186520 | 8.89° C | 82% | 1019.3 hPa | 0 mm | - | 0 W/m² | - |
| 1777185920 | 8.89° C | 81% | 1019.3 hPa | 0 mm | - | 0 W/m² | - |
* Rain latest hour (hover to see other rain measurements)
** Current wind speed in m/s (hover to see current wind gust speed)